sensor_id;sensor_type;location;lat;lon;timestamp;P1;durP1;ratioP1;P2;durP2;ratioP2
67776;SDS011;54576;52.020;5.536;2023-06-22T00:00:52;3.70;;;3.00;;
67776;SDS011;54576;52.020;5.536;2023-06-22T00:03:18;4.20;;;3.00;;
67776;SDS011;54576;52.020;5.536;2023-06-22T00:05:45;5.65;;;3.15;;
67776;SDS011;54576;52.020;5.536;2023-06-22T00:08:12;4.75;;;3.40;;
67776;SDS011;54576;52.020;5.536;2023-06-22T00:10:38;6.10;;;3.20;;
67776;SDS011;54576;52.020;5.536;2023-06-22T00:13:03;6.18;;;3.20;;
67776;SDS011;54576;52.020;5.536;2023-06-22T00:15:30;3.97;;;3.28;;
67776;SDS011;54576;52.020;5.536;2023-06-22T00:17:55;6.57;;;2.83;;
67776;SDS011;54576;52.020;5.536;2023-06-22T00:20:22;5.50;;;3.30;;
67776;SDS011;54576;52.020;5.536;2023-06-22T00:22:48;5.43;;;3.22;;
67776;SDS011;54576;52.020;5.536;2023-06-22T00:25:14;3.78;;;3.30;;
67776;SDS011;54576;52.020;5.536;2023-06-22T00:27:40;4.25;;;3.17;;
67776;SDS011;54576;52.020;5.536;2023-06-22T00:30:06;9.30;;;3.22;;
67776;SDS011;54576;52.020;5.536;2023-06-22T00:32:32;3.22;;;2.92;;
67776;SDS011;54576;52.020;5.536;2023-06-22T00:34:58;3.67;;;3.08;;
67776;SDS011;54576;52.020;5.536;2023-06-22T00:37:23;3.42;;;3.13;;
67776;SDS011;54576;52.020;5.536;2023-06-22T00:39:51;8.73;;;3.80;;
67776;SDS011;54576;52.020;5.536;2023-06-22T00:42:16;7.13;;;2.92;;
67776;SDS011;54576;52.020;5.536;2023-06-22T00:44:42;3.70;;;2.85;;
67776;SDS011;54576;52.020;5.536;2023-06-22T00:47:09;10.65;;;3.25;;
67776;SDS011;54576;52.020;5.536;2023-06-22T00:49:37;3.27;;;2.90;;
67776;SDS011;54576;52.020;5.536;2023-06-22T00:52:03;3.90;;;3.00;;
67776;SDS011;54576;52.020;5.536;2023-06-22T00:54:34;5.93;;;2.95;;
67776;SDS011;54576;52.020;5.536;2023-06-22T00:57:01;4.15;;;3.13;;
67776;SDS011;54576;52.020;5.536;2023-06-22T00:59:27;5.05;;;3.80;;
67776;SDS011;54576;52.020;5.536;2023-06-22T01:01:52;4.25;;;3.88;;
67776;SDS011;54576;52.020;5.536;2023-06-22T01:04:18;6.18;;;3.92;;
67776;SDS011;54576;52.020;5.536;2023-06-22T01:06:54;9.15;;;4.65;;
67776;SDS011;54576;52.020;5.536;2023-06-22T01:09:49;10.05;;;4.95;;
67776;SDS011;54576;52.020;5.536;2023-06-22T01:12:40;11.63;;;5.10;;
67776;SDS011;54576;52.020;5.536;2023-06-22T01:15:18;10.40;;;5.13;;
67776;SDS011;54576;52.020;5.536;2023-06-22T01:17:55;9.35;;;4.63;;
67776;SDS011;54576;52.020;5.536;2023-06-22T01:20:27;9.88;;;4.60;;
67776;SDS011;54576;52.020;5.536;2023-06-22T01:26:08;15.18;;;6.15;;
67776;SDS011;54576;52.020;5.536;2023-06-22T01:28:54;9.50;;;6.60;;
67776;SDS011;54576;52.020;5.536;2023-06-22T01:31:23;13.80;;;5.03;;
67776;SDS011;54576;52.020;5.536;2023-06-22T01:33:55;9.65;;;5.82;;
67776;SDS011;54576;52.020;5.536;2023-06-22T01:36:24;11.60;;;5.90;;
67776;SDS011;54576;52.020;5.536;2023-06-22T01:41:21;6.85;;;5.57;;
67776;SDS011;54576;52.020;5.536;2023-06-22T01:43:49;9.73;;;5.70;;
67776;SDS011;54576;52.020;5.536;2023-06-22T01:46:17;5.05;;;4.43;;
67776;SDS011;54576;52.020;5.536;2023-06-22T01:48:44;9.02;;;5.18;;
67776;SDS011;54576;52.020;5.536;2023-06-22T01:51:11;8.77;;;5.30;;
67776;SDS011;54576;52.020;5.536;2023-06-22T01:53:37;9.82;;;6.68;;
67776;SDS011;54576;52.020;5.536;2023-06-22T01:56:02;12.98;;;6.07;;
67776;SDS011;54576;52.020;5.536;2023-06-22T01:58:29;9.25;;;6.32;;
67776;SDS011;54576;52.020;5.536;2023-06-22T02:01:07;9.45;;;6.30;;
67776;SDS011;54576;52.020;5.536;2023-06-22T02:03:41;7.75;;;6.22;;
67776;SDS011;54576;52.020;5.536;2023-06-22T02:06:27;12.15;;;7.57;;
67776;SDS011;54576;52.020;5.536;2023-06-22T02:09:01;12.02;;;7.03;;
67776;SDS011;54576;52.020;5.536;2023-06-22T02:11:29;12.32;;;7.32;;
67776;SDS011;54576;52.020;5.536;2023-06-22T02:13:59;13.10;;;7.65;;
67776;SDS011;54576;52.020;5.536;2023-06-22T02:16:25;7.50;;;6.80;;
67776;SDS011;54576;52.020;5.536;2023-06-22T02:18:54;7.80;;;6.80;;
67776;SDS011;54576;52.020;5.536;2023-06-22T02:21:23;9.25;;;7.95;;
67776;SDS011;54576;52.020;5.536;2023-06-22T02:23:48;9.00;;;6.70;;
67776;SDS011;54576;52.020;5.536;2023-06-22T02:26:16;9.02;;;6.57;;
67776;SDS011;54576;52.020;5.536;2023-06-22T02:28:42;11.05;;;6.43;;
67776;SDS011;54576;52.020;5.536;2023-06-22T02:31:08;8.20;;;7.03;;
67776;SDS011;54576;52.020;5.536;2023-06-22T02:33:33;7.72;;;6.65;;
67776;SDS011;54576;52.020;5.536;2023-06-22T02:35:59;10.15;;;6.20;;
67776;SDS011;54576;52.020;5.536;2023-06-22T02:38:24;9.88;;;7.68;;
67776;SDS011;54576;52.020;5.536;2023-06-22T02:40:51;10.15;;;7.22;;
67776;SDS011;54576;52.020;5.536;2023-06-22T02:43:16;9.35;;;7.07;;
67776;SDS011;54576;52.020;5.536;2023-06-22T02:45:42;8.90;;;7.15;;
67776;SDS011;54576;52.020;5.536;2023-06-22T02:48:10;14.73;;;7.65;;
67776;SDS011;54576;52.020;5.536;2023-06-22T02:50:36;10.13;;;7.35;;
67776;SDS011;54576;52.020;5.536;2023-06-22T02:53:01;9.52;;;7.10;;
67776;SDS011;54576;52.020;5.536;2023-06-22T02:55:27;11.43;;;7.22;;
67776;SDS011;54576;52.020;5.536;2023-06-22T02:57:53;9.10;;;6.50;;
67776;SDS011;54576;52.020;5.536;2023-06-22T03:00:19;9.30;;;7.28;;
67776;SDS011;54576;52.020;5.536;2023-06-22T03:02:45;9.23;;;7.05;;
67776;SDS011;54576;52.020;5.536;2023-06-22T03:05:12;11.65;;;7.03;;
67776;SDS011;54576;52.020;5.536;2023-06-22T03:07:43;11.98;;;7.18;;
67776;SDS011;54576;52.020;5.536;2023-06-22T03:10:09;8.63;;;7.07;;
67776;SDS011;54576;52.020;5.536;2023-06-22T03:12:39;10.48;;;7.93;;
67776;SDS011;54576;52.020;5.536;2023-06-22T03:17:35;7.97;;;6.78;;
67776;SDS011;54576;52.020;5.536;2023-06-22T03:20:02;7.78;;;6.80;;
67776;SDS011;54576;52.020;5.536;2023-06-22T03:22:34;10.32;;;6.93;;
67776;SDS011;54576;52.020;5.536;2023-06-22T03:25:03;7.00;;;6.35;;
67776;SDS011;54576;52.020;5.536;2023-06-22T03:27:29;8.73;;;6.53;;
67776;SDS011;54576;52.020;5.536;2023-06-22T03:29:56;11.57;;;6.63;;
67776;SDS011;54576;52.020;5.536;2023-06-22T03:32:22;11.10;;;6.78;;
67776;SDS011;54576;52.020;5.536;2023-06-22T03:34:48;7.63;;;6.35;;
67776;SDS011;54576;52.020;5.536;2023-06-22T03:37:14;12.27;;;6.30;;
67776;SDS011;54576;52.020;5.536;2023-06-22T03:39:40;10.63;;;6.22;;
67776;SDS011;54576;52.020;5.536;2023-06-22T03:42:06;9.63;;;6.75;;
67776;SDS011;54576;52.020;5.536;2023-06-22T03:44:32;11.30;;;6.70;;
67776;SDS011;54576;52.020;5.536;2023-06-22T03:46:58;8.32;;;6.57;;
67776;SDS011;54576;52.020;5.536;2023-06-22T03:49:23;7.00;;;6.40;;
67776;SDS011;54576;52.020;5.536;2023-06-22T03:51:49;15.48;;;5.95;;
67776;SDS011;54576;52.020;5.536;2023-06-22T03:54:14;7.35;;;5.78;;
67776;SDS011;54576;52.020;5.536;2023-06-22T03:56:40;10.55;;;6.07;;
67776;SDS011;54576;52.020;5.536;2023-06-22T03:59:06;6.95;;;6.18;;
67776;SDS011;54576;52.020;5.536;2023-06-22T04:01:31;9.43;;;6.75;;
67776;SDS011;54576;52.020;5.536;2023-06-22T04:03:57;14.27;;;7.10;;
67776;SDS011;54576;52.020;5.536;2023-06-22T04:06:22;9.90;;;7.38;;
67776;SDS011;54576;52.020;5.536;2023-06-22T04:08:48;11.73;;;7.70;;
67776;SDS011;54576;52.020;5.536;2023-06-22T04:11:16;15.48;;;7.50;;
67776;SDS011;54576;52.020;5.536;2023-06-22T04:13:43;10.05;;;7.30;;
67776;SDS011;54576;52.020;5.536;2023-06-22T04:16:08;11.88;;;7.15;;
67776;SDS011;54576;52.020;5.536;2023-06-22T04:18:34;18.33;;;8.60;;
67776;SDS011;54576;52.020;5.536;2023-06-22T04:20:59;13.18;;;8.18;;
67776;SDS011;54576;52.020;5.536;2023-06-22T04:23:25;17.80;;;8.35;;
67776;SDS011;54576;52.020;5.536;2023-06-22T04:28:16;12.85;;;8.25;;
67776;SDS011;54576;52.020;5.536;2023-06-22T04:30:42;12.50;;;8.35;;
67776;SDS011;54576;52.020;5.536;2023-06-22T04:33:14;12.30;;;9.05;;
67776;SDS011;54576;52.020;5.536;2023-06-22T04:35:40;16.00;;;9.25;;
67776;SDS011;54576;52.020;5.536;2023-06-22T04:38:06;14.63;;;8.13;;
67776;SDS011;54576;52.020;5.536;2023-06-22T04:40:32;11.30;;;8.25;;
67776;SDS011;54576;52.020;5.536;2023-06-22T04:42:58;11.68;;;8.60;;
67776;SDS011;54576;52.020;5.536;2023-06-22T04:45:27;10.60;;;7.82;;
67776;SDS011;54576;52.020;5.536;2023-06-22T04:47:53;11.70;;;7.85;;
67776;SDS011;54576;52.020;5.536;2023-06-22T04:50:18;9.38;;;7.75;;
67776;SDS011;54576;52.020;5.536;2023-06-22T04:52:46;10.25;;;8.50;;
67776;SDS011;54576;52.020;5.536;2023-06-22T04:55:12;10.25;;;7.35;;
67776;SDS011;54576;52.020;5.536;2023-06-22T04:57:38;16.25;;;7.65;;
67776;SDS011;54576;52.020;5.536;2023-06-22T05:00:04;15.27;;;8.45;;
67776;SDS011;54576;52.020;5.536;2023-06-22T05:02:57;14.07;;;8.77;;
67776;SDS011;54576;52.020;5.536;2023-06-22T05:05:23;13.55;;;8.73;;
67776;SDS011;54576;52.020;5.536;2023-06-22T05:07:49;13.63;;;7.93;;
67776;SDS011;54576;52.020;5.536;2023-06-22T05:10:17;11.93;;;7.88;;
67776;SDS011;54576;52.020;5.536;2023-06-22T05:12:44;14.48;;;6.90;;
67776;SDS011;54576;52.020;5.536;2023-06-22T05:15:11;14.60;;;7.28;;
67776;SDS011;54576;52.020;5.536;2023-06-22T05:17:37;8.88;;;7.43;;
67776;SDS011;54576;52.020;5.536;2023-06-22T05:20:08;8.82;;;7.50;;
67776;SDS011;54576;52.020;5.536;2023-06-22T05:22:38;17.45;;;8.05;;
67776;SDS011;54576;52.020;5.536;2023-06-22T05:25:05;7.88;;;6.88;;
67776;SDS011;54576;52.020;5.536;2023-06-22T05:27:33;21.15;;;10.85;;
67776;SDS011;54576;52.020;5.536;2023-06-22T05:30:04;20.13;;;13.10;;
67776;SDS011;54576;52.020;5.536;2023-06-22T05:32:34;23.42;;;13.85;;
67776;SDS011;54576;52.020;5.536;2023-06-22T05:35:00;25.70;;;14.95;;
67776;SDS011;54576;52.020;5.536;2023-06-22T05:37:29;22.55;;;14.38;;
67776;SDS011;54576;52.020;5.536;2023-06-22T05:39:55;23.27;;;15.18;;
67776;SDS011;54576;52.020;5.536;2023-06-22T05:42:22;21.23;;;15.45;;
67776;SDS011;54576;52.020;5.536;2023-06-22T05:44:47;25.45;;;16.13;;
67776;SDS011;54576;52.020;5.536;2023-06-22T05:47:13;25.25;;;16.40;;
67776;SDS011;54576;52.020;5.536;2023-06-22T05:49:39;28.95;;;17.42;;
67776;SDS011;54576;52.020;5.536;2023-06-22T05:52:04;31.95;;;16.70;;
67776;SDS011;54576;52.020;5.536;2023-06-22T05:54:30;31.75;;;17.60;;
67776;SDS011;54576;52.020;5.536;2023-06-22T05:56:56;25.17;;;16.83;;
67776;SDS011;54576;52.020;5.536;2023-06-22T05:59:22;25.50;;;16.42;;
67776;SDS011;54576;52.020;5.536;2023-06-22T06:01:47;21.85;;;16.05;;
67776;SDS011;54576;52.020;5.536;2023-06-22T06:04:16;29.98;;;15.85;;
67776;SDS011;54576;52.020;5.536;2023-06-22T06:06:43;28.13;;;15.98;;
67776;SDS011;54576;52.020;5.536;2023-06-22T06:09:09;25.23;;;16.23;;
67776;SDS011;54576;52.020;5.536;2023-06-22T06:11:36;24.38;;;15.38;;
67776;SDS011;54576;52.020;5.536;2023-06-22T06:14:02;27.52;;;16.23;;
67776;SDS011;54576;52.020;5.536;2023-06-22T06:16:28;23.80;;;15.80;;
67776;SDS011;54576;52.020;5.536;2023-06-22T06:18:53;24.30;;;15.98;;
67776;SDS011;54576;52.020;5.536;2023-06-22T06:21:20;24.33;;;15.65;;
67776;SDS011;54576;52.020;5.536;2023-06-22T06:23:46;20.05;;;15.60;;
67776;SDS011;54576;52.020;5.536;2023-06-22T06:26:12;17.75;;;14.23;;
67776;SDS011;54576;52.020;5.536;2023-06-22T06:28:42;20.17;;;14.88;;
67776;SDS011;54576;52.020;5.536;2023-06-22T06:31:08;17.77;;;14.65;;
67776;SDS011;54576;52.020;5.536;2023-06-22T06:33:34;23.17;;;14.48;;
67776;SDS011;54576;52.020;5.536;2023-06-22T06:36:00;21.08;;;14.70;;
67776;SDS011;54576;52.020;5.536;2023-06-22T06:38:28;26.92;;;14.82;;
67776;SDS011;54576;52.020;5.536;2023-06-22T06:40:54;20.05;;;14.60;;
67776;SDS011;54576;52.020;5.536;2023-06-22T06:43:20;19.88;;;14.82;;
67776;SDS011;54576;52.020;5.536;2023-06-22T06:45:45;23.65;;;14.70;;
67776;SDS011;54576;52.020;5.536;2023-06-22T06:48:11;19.42;;;14.20;;
67776;SDS011;54576;52.020;5.536;2023-06-22T06:50:37;26.50;;;15.10;;
67776;SDS011;54576;52.020;5.536;2023-06-22T06:53:02;20.38;;;14.88;;
67776;SDS011;54576;52.020;5.536;2023-06-22T06:55:28;21.83;;;14.25;;
67776;SDS011;54576;52.020;5.536;2023-06-22T06:57:57;21.15;;;13.90;;
67776;SDS011;54576;52.020;5.536;2023-06-22T07:00:24;21.77;;;14.65;;
67776;SDS011;54576;52.020;5.536;2023-06-22T07:02:50;24.77;;;13.90;;
67776;SDS011;54576;52.020;5.536;2023-06-22T07:05:16;20.45;;;14.40;;
67776;SDS011;54576;52.020;5.536;2023-06-22T07:07:42;20.98;;;14.43;;
67776;SDS011;54576;52.020;5.536;2023-06-22T07:10:08;19.75;;;13.88;;
67776;SDS011;54576;52.020;5.536;2023-06-22T07:12:34;22.98;;;13.65;;
67776;SDS011;54576;52.020;5.536;2023-06-22T07:15:01;16.50;;;13.30;;
67776;SDS011;54576;52.020;5.536;2023-06-22T07:17:32;18.52;;;12.20;;
67776;SDS011;54576;52.020;5.536;2023-06-22T07:20:02;17.52;;;11.25;;
67776;SDS011;54576;52.020;5.536;2023-06-22T07:22:32;17.00;;;11.65;;
67776;SDS011;54576;52.020;5.536;2023-06-22T07:24:58;18.98;;;11.25;;
67776;SDS011;54576;52.020;5.536;2023-06-22T07:27:24;17.55;;;11.13;;
67776;SDS011;54576;52.020;5.536;2023-06-22T07:29:50;12.35;;;10.07;;
67776;SDS011;54576;52.020;5.536;2023-06-22T07:32:15;16.63;;;9.75;;
67776;SDS011;54576;52.020;5.536;2023-06-22T07:34:41;9.73;;;8.52;;
67776;SDS011;54576;52.020;5.536;2023-06-22T07:37:07;12.18;;;8.80;;
67776;SDS011;54576;52.020;5.536;2023-06-22T07:39:32;12.30;;;8.80;;
67776;SDS011;54576;52.020;5.536;2023-06-22T07:41:58;10.15;;;7.78;;
67776;SDS011;54576;52.020;5.536;2023-06-22T07:44:23;11.55;;;7.43;;
67776;SDS011;54576;52.020;5.536;2023-06-22T07:46:49;14.55;;;6.72;;
67776;SDS011;54576;52.020;5.536;2023-06-22T07:49:15;13.40;;;6.40;;
67776;SDS011;54576;52.020;5.536;2023-06-22T07:51:41;11.88;;;7.25;;
67776;SDS011;54576;52.020;5.536;2023-06-22T07:54:06;7.95;;;5.43;;
67776;SDS011;54576;52.020;5.536;2023-06-22T07:56:33;7.05;;;5.93;;
67776;SDS011;54576;52.020;5.536;2023-06-22T07:58:59;11.15;;;6.03;;
67776;SDS011;54576;52.020;5.536;2023-06-22T08:01:26;8.18;;;6.65;;
67776;SDS011;54576;52.020;5.536;2023-06-22T08:03:54;11.45;;;7.07;;
67776;SDS011;54576;52.020;5.536;2023-06-22T08:06:20;8.68;;;6.00;;
67776;SDS011;54576;52.020;5.536;2023-06-22T08:08:46;13.52;;;6.82;;
67776;SDS011;54576;52.020;5.536;2023-06-22T08:11:14;9.55;;;6.75;;
67776;SDS011;54576;52.020;5.536;2023-06-22T08:13:39;8.68;;;6.43;;
67776;SDS011;54576;52.020;5.536;2023-06-22T08:16:05;8.07;;;6.00;;
67776;SDS011;54576;52.020;5.536;2023-06-22T08:18:32;7.85;;;6.22;;
67776;SDS011;54576;52.020;5.536;2023-06-22T08:20:58;10.20;;;6.43;;
67776;SDS011;54576;52.020;5.536;2023-06-22T08:23:23;11.10;;;6.60;;
67776;SDS011;54576;52.020;5.536;2023-06-22T08:25:49;8.88;;;6.43;;
67776;SDS011;54576;52.020;5.536;2023-06-22T08:28:15;7.68;;;6.22;;
67776;SDS011;54576;52.020;5.536;2023-06-22T08:30:40;9.00;;;5.50;;
67776;SDS011;54576;52.020;5.536;2023-06-22T08:33:06;13.18;;;7.00;;
67776;SDS011;54576;52.020;5.536;2023-06-22T08:35:32;11.75;;;7.05;;
67776;SDS011;54576;52.020;5.536;2023-06-22T08:37:57;11.98;;;6.63;;
67776;SDS011;54576;52.020;5.536;2023-06-22T08:40:24;10.57;;;6.93;;
67776;SDS011;54576;52.020;5.536;2023-06-22T08:42:50;14.00;;;7.18;;
67776;SDS011;54576;52.020;5.536;2023-06-22T08:45:16;11.45;;;6.90;;
67776;SDS011;54576;52.020;5.536;2023-06-22T08:47:41;13.25;;;7.47;;
67776;SDS011;54576;52.020;5.536;2023-06-22T08:50:08;9.23;;;6.93;;
67776;SDS011;54576;52.020;5.536;2023-06-22T08:52:34;9.10;;;6.50;;
67776;SDS011;54576;52.020;5.536;2023-06-22T08:55:01;10.13;;;6.18;;
67776;SDS011;54576;52.020;5.536;2023-06-22T08:57:27;10.35;;;6.25;;
67776;SDS011;54576;52.020;5.536;2023-06-22T08:59:53;11.65;;;5.18;;
67776;SDS011;54576;52.020;5.536;2023-06-22T09:02:23;6.75;;;4.88;;
67776;SDS011;54576;52.020;5.536;2023-06-22T09:04:55;6.38;;;5.32;;
67776;SDS011;54576;52.020;5.536;2023-06-22T09:07:22;10.23;;;5.05;;
67776;SDS011;54576;52.020;5.536;2023-06-22T09:09:49;9.75;;;5.22;;
67776;SDS011;54576;52.020;5.536;2023-06-22T09:12:15;7.88;;;5.88;;
67776;SDS011;54576;52.020;5.536;2023-06-22T09:14:41;6.45;;;5.20;;
67776;SDS011;54576;52.020;5.536;2023-06-22T09:17:08;8.15;;;5.50;;
67776;SDS011;54576;52.020;5.536;2023-06-22T09:19:34;8.65;;;5.07;;
67776;SDS011;54576;52.020;5.536;2023-06-22T09:22:00;6.25;;;5.03;;
67776;SDS011;54576;52.020;5.536;2023-06-22T09:24:25;7.03;;;4.47;;
67776;SDS011;54576;52.020;5.536;2023-06-22T09:26:51;6.13;;;5.28;;
67776;SDS011;54576;52.020;5.536;2023-06-22T09:29:16;6.05;;;4.82;;
67776;SDS011;54576;52.020;5.536;2023-06-22T09:31:42;6.18;;;4.97;;
67776;SDS011;54576;52.020;5.536;2023-06-22T09:34:09;11.80;;;5.38;;
67776;SDS011;54576;52.020;5.536;2023-06-22T09:36:34;7.22;;;5.03;;
67776;SDS011;54576;52.020;5.536;2023-06-22T09:39:01;6.45;;;4.60;;
67776;SDS011;54576;52.020;5.536;2023-06-22T09:41:30;6.22;;;4.70;;
67776;SDS011;54576;52.020;5.536;2023-06-22T09:43:56;6.22;;;5.10;;
67776;SDS011;54576;52.020;5.536;2023-06-22T09:46:22;8.95;;;5.25;;
67776;SDS011;54576;52.020;5.536;2023-06-22T09:48:50;6.03;;;5.07;;
67776;SDS011;54576;52.020;5.536;2023-06-22T09:51:16;8.45;;;4.80;;
67776;SDS011;54576;52.020;5.536;2023-06-22T09:53:46;7.57;;;4.47;;
67776;SDS011;54576;52.020;5.536;2023-06-22T09:56:12;9.23;;;5.03;;
67776;SDS011;54576;52.020;5.536;2023-06-22T09:58:43;8.35;;;4.88;;
67776;SDS011;54576;52.020;5.536;2023-06-22T10:01:10;6.63;;;4.85;;
67776;SDS011;54576;52.020;5.536;2023-06-22T10:03:36;6.13;;;4.55;;
67776;SDS011;54576;52.020;5.536;2023-06-22T10:06:02;6.30;;;4.70;;
67776;SDS011;54576;52.020;5.536;2023-06-22T10:08:28;12.90;;;5.07;;
67776;SDS011;54576;52.020;5.536;2023-06-22T10:10:54;10.20;;;5.28;;
67776;SDS011;54576;52.020;5.536;2023-06-22T10:13:19;15.10;;;4.57;;
67776;SDS011;54576;52.020;5.536;2023-06-22T10:15:45;10.48;;;4.97;;
67776;SDS011;54576;52.020;5.536;2023-06-22T10:18:15;5.72;;;4.60;;
67776;SDS011;54576;52.020;5.536;2023-06-22T10:20:43;6.45;;;4.68;;
67776;SDS011;54576;52.020;5.536;2023-06-22T10:25:37;5.35;;;4.05;;
67776;SDS011;54576;52.020;5.536;2023-06-22T10:28:06;7.63;;;4.47;;
67776;SDS011;54576;52.020;5.536;2023-06-22T10:30:32;7.35;;;4.22;;
67776;SDS011;54576;52.020;5.536;2023-06-22T10:32:58;11.68;;;4.10;;
67776;SDS011;54576;52.020;5.536;2023-06-22T10:35:23;10.82;;;4.57;;
67776;SDS011;54576;52.020;5.536;2023-06-22T10:37:49;10.50;;;4.45;;
67776;SDS011;54576;52.020;5.536;2023-06-22T10:40:16;10.45;;;4.78;;
67776;SDS011;54576;52.020;5.536;2023-06-22T10:42:43;6.82;;;4.40;;
67776;SDS011;54576;52.020;5.536;2023-06-22T10:45:09;4.43;;;3.92;;
67776;SDS011;54576;52.020;5.536;2023-06-22T10:47:35;4.88;;;4.40;;
67776;SDS011;54576;52.020;5.536;2023-06-22T10:50:02;8.63;;;4.40;;
67776;SDS011;54576;52.020;5.536;2023-06-22T10:52:28;7.72;;;3.83;;
67776;SDS011;54576;52.020;5.536;2023-06-22T10:54:53;4.10;;;3.70;;
67776;SDS011;54576;52.020;5.536;2023-06-22T10:57:28;5.68;;;3.90;;
67776;SDS011;54576;52.020;5.536;2023-06-22T10:59:56;3.97;;;3.67;;
67776;SDS011;54576;52.020;5.536;2023-06-22T11:02:22;7.07;;;4.18;;
67776;SDS011;54576;52.020;5.536;2023-06-22T11:04:48;8.68;;;4.20;;
67776;SDS011;54576;52.020;5.536;2023-06-22T11:07:13;5.00;;;4.55;;
67776;SDS011;54576;52.020;5.536;2023-06-22T11:09:40;6.18;;;4.32;;
67776;SDS011;54576;52.020;5.536;2023-06-22T11:12:05;7.18;;;4.57;;
67776;SDS011;54576;52.020;5.536;2023-06-22T11:14:31;9.68;;;4.43;;
67776;SDS011;54576;52.020;5.536;2023-06-22T11:16:58;7.28;;;4.57;;
67776;SDS011;54576;52.020;5.536;2023-06-22T11:19:24;6.60;;;4.28;;
67776;SDS011;54576;52.020;5.536;2023-06-22T11:21:49;7.47;;;4.47;;
67776;SDS011;54576;52.020;5.536;2023-06-22T11:24:16;6.78;;;4.60;;
67776;SDS011;54576;52.020;5.536;2023-06-22T11:26:42;11.82;;;4.57;;
67776;SDS011;54576;52.020;5.536;2023-06-22T11:29:08;10.60;;;4.15;;
67776;SDS011;54576;52.020;5.536;2023-06-22T11:31:34;7.05;;;4.45;;
67776;SDS011;54576;52.020;5.536;2023-06-22T11:34:00;5.88;;;4.40;;
67776;SDS011;54576;52.020;5.536;2023-06-22T11:36:26;9.32;;;4.78;;
67776;SDS011;54576;52.020;5.536;2023-06-22T11:38:52;5.65;;;4.40;;
67776;SDS011;54576;52.020;5.536;2023-06-22T11:41:17;8.50;;;5.05;;
67776;SDS011;54576;52.020;5.536;2023-06-22T11:43:46;11.48;;;6.25;;
67776;SDS011;54576;52.020;5.536;2023-06-22T11:46:12;8.32;;;5.47;;
67776;SDS011;54576;52.020;5.536;2023-06-22T11:48:37;11.68;;;5.70;;
67776;SDS011;54576;52.020;5.536;2023-06-22T11:51:03;16.55;;;6.47;;
67776;SDS011;54576;52.020;5.536;2023-06-22T11:53:31;10.38;;;6.43;;
67776;SDS011;54576;52.020;5.536;2023-06-22T11:55:56;12.00;;;6.88;;
67776;SDS011;54576;52.020;5.536;2023-06-22T11:58:22;12.90;;;6.85;;
67776;SDS011;54576;52.020;5.536;2023-06-22T12:00:48;10.05;;;7.15;;
67776;SDS011;54576;52.020;5.536;2023-06-22T12:03:15;21.45;;;7.78;;
67776;SDS011;54576;52.020;5.536;2023-06-22T12:05:41;12.52;;;7.63;;
67776;SDS011;54576;52.020;5.536;2023-06-22T12:08:07;15.07;;;7.72;;
67776;SDS011;54576;52.020;5.536;2023-06-22T12:10:33;14.95;;;7.22;;
67776;SDS011;54576;52.020;5.536;2023-06-22T12:12:59;11.52;;;7.55;;
67776;SDS011;54576;52.020;5.536;2023-06-22T12:15:25;10.40;;;7.13;;
67776;SDS011;54576;52.020;5.536;2023-06-22T12:17:51;9.55;;;7.40;;
67776;SDS011;54576;52.020;5.536;2023-06-22T12:20:16;11.20;;;7.03;;
67776;SDS011;54576;52.020;5.536;2023-06-22T12:22:42;10.23;;;7.10;;
67776;SDS011;54576;52.020;5.536;2023-06-22T12:25:08;8.77;;;6.63;;
67776;SDS011;54576;52.020;5.536;2023-06-22T12:27:34;9.00;;;6.43;;
67776;SDS011;54576;52.020;5.536;2023-06-22T12:30:01;11.50;;;7.28;;
67776;SDS011;54576;52.020;5.536;2023-06-22T12:32:27;16.30;;;6.22;;
67776;SDS011;54576;52.020;5.536;2023-06-22T12:34:53;9.52;;;6.55;;
67776;SDS011;54576;52.020;5.536;2023-06-22T12:37:18;12.32;;;7.20;;
67776;SDS011;54576;52.020;5.536;2023-06-22T12:39:44;12.15;;;7.50;;
67776;SDS011;54576;52.020;5.536;2023-06-22T12:42:10;12.02;;;7.63;;
67776;SDS011;54576;52.020;5.536;2023-06-22T12:44:39;9.48;;;6.90;;
67776;SDS011;54576;52.020;5.536;2023-06-22T12:47:08;8.88;;;6.47;;
67776;SDS011;54576;52.020;5.536;2023-06-22T12:49:34;9.20;;;6.90;;
67776;SDS011;54576;52.020;5.536;2023-06-22T12:52:00;10.90;;;6.95;;
67776;SDS011;54576;52.020;5.536;2023-06-22T12:54:26;9.93;;;7.10;;
67776;SDS011;54576;52.020;5.536;2023-06-22T12:56:53;9.63;;;7.18;;
67776;SDS011;54576;52.020;5.536;2023-06-22T12:59:19;12.13;;;7.47;;
67776;SDS011;54576;52.020;5.536;2023-06-22T13:01:44;11.18;;;8.25;;
67776;SDS011;54576;52.020;5.536;2023-06-22T13:04:11;10.27;;;7.97;;
67776;SDS011;54576;52.020;5.536;2023-06-22T13:06:39;19.67;;;8.27;;
67776;SDS011;54576;52.020;5.536;2023-06-22T13:09:05;10.75;;;7.97;;
67776;SDS011;54576;52.020;5.536;2023-06-22T13:11:31;13.00;;;8.43;;
67776;SDS011;54576;52.020;5.536;2023-06-22T13:13:57;14.90;;;7.88;;
67776;SDS011;54576;52.020;5.536;2023-06-22T13:16:22;10.23;;;8.30;;
67776;SDS011;54576;52.020;5.536;2023-06-22T13:18:48;11.65;;;9.05;;
67776;SDS011;54576;52.020;5.536;2023-06-22T13:21:13;15.90;;;9.57;;
67776;SDS011;54576;52.020;5.536;2023-06-22T13:23:39;18.83;;;9.65;;
67776;SDS011;54576;52.020;5.536;2023-06-22T13:26:04;16.08;;;9.32;;
67776;SDS011;54576;52.020;5.536;2023-06-22T13:28:30;14.10;;;9.82;;
67776;SDS011;54576;52.020;5.536;2023-06-22T13:30:56;15.55;;;9.73;;
67776;SDS011;54576;52.020;5.536;2023-06-22T13:33:21;17.88;;;9.57;;
67776;SDS011;54576;52.020;5.536;2023-06-22T13:35:47;15.18;;;10.32;;
67776;SDS011;54576;52.020;5.536;2023-06-22T13:38:12;12.60;;;8.55;;
67776;SDS011;54576;52.020;5.536;2023-06-22T13:40:38;16.58;;;9.55;;
67776;SDS011;54576;52.020;5.536;2023-06-22T13:43:04;14.10;;;10.25;;
67776;SDS011;54576;52.020;5.536;2023-06-22T13:45:30;15.50;;;10.23;;
67776;SDS011;54576;52.020;5.536;2023-06-22T13:47:56;18.77;;;11.05;;
67776;SDS011;54576;52.020;5.536;2023-06-22T13:50:22;20.90;;;10.93;;
67776;SDS011;54576;52.020;5.536;2023-06-22T13:52:47;14.95;;;11.55;;
67776;SDS011;54576;52.020;5.536;2023-06-22T13:55:13;18.98;;;10.13;;
67776;SDS011;54576;52.020;5.536;2023-06-22T13:57:39;18.83;;;11.35;;
67776;SDS011;54576;52.020;5.536;2023-06-22T14:00:05;14.38;;;10.60;;
67776;SDS011;54576;52.020;5.536;2023-06-22T14:02:33;16.63;;;10.90;;
67776;SDS011;54576;52.020;5.536;2023-06-22T14:04:58;15.40;;;10.73;;
67776;SDS011;54576;52.020;5.536;2023-06-22T14:07:24;17.25;;;11.57;;
67776;SDS011;54576;52.020;5.536;2023-06-22T14:09:50;16.52;;;10.70;;
67776;SDS011;54576;52.020;5.536;2023-06-22T14:12:22;20.58;;;13.38;;
67776;SDS011;54576;52.020;5.536;2023-06-22T14:14:48;18.73;;;12.48;;
67776;SDS011;54576;52.020;5.536;2023-06-22T14:17:14;21.25;;;11.27;;
67776;SDS011;54576;52.020;5.536;2023-06-22T14:19:39;16.95;;;11.52;;
67776;SDS011;54576;52.020;5.536;2023-06-22T14:22:05;19.80;;;12.35;;
67776;SDS011;54576;52.020;5.536;2023-06-22T14:24:31;16.83;;;12.25;;
67776;SDS011;54576;52.020;5.536;2023-06-22T14:26:56;19.35;;;12.45;;
67776;SDS011;54576;52.020;5.536;2023-06-22T14:29:22;15.73;;;12.82;;
67776;SDS011;54576;52.020;5.536;2023-06-22T14:31:48;20.35;;;12.90;;
67776;SDS011;54576;52.020;5.536;2023-06-22T14:34:14;21.35;;;12.55;;
67776;SDS011;54576;52.020;5.536;2023-06-22T14:36:40;17.50;;;13.40;;
67776;SDS011;54576;52.020;5.536;2023-06-22T14:39:07;14.80;;;12.40;;
67776;SDS011;54576;52.020;5.536;2023-06-22T14:41:33;21.08;;;12.02;;
67776;SDS011;54576;52.020;5.536;2023-06-22T14:44:01;19.75;;;13.07;;
67776;SDS011;54576;52.020;5.536;2023-06-22T14:46:27;18.95;;;12.50;;